createdAt,value
2018-01-22T00:00:27.142Z,34.77
2018-01-22T00:02:54.643Z,25.93
2018-01-22T00:05:22.118Z,28.87
2018-01-22T00:07:49.649Z,29.97
2018-01-22T00:10:17.153Z,24.40
2018-01-22T00:12:44.665Z,34.20
2018-01-22T00:15:12.163Z,21.07
2018-01-22T00:17:39.636Z,26.23
2018-01-22T00:20:07.124Z,20.60
2018-01-22T00:22:35.383Z,28.20
2018-01-22T00:25:02.908Z,18.60
2018-01-22T00:27:30.450Z,17.30
2018-01-22T00:29:57.966Z,19.70
2018-01-22T00:32:26.235Z,24.33
2018-01-22T00:34:53.834Z,22.07
2018-01-22T00:37:21.318Z,22.20
2018-01-22T00:39:48.805Z,26.93
2018-01-22T00:42:17.118Z,21.07
2018-01-22T00:44:44.611Z,27.20
2018-01-22T00:47:12.165Z,28.07
2018-01-22T00:49:39.639Z,24.00
2018-01-22T00:52:07.170Z,21.57
2018-01-22T00:54:34.705Z,19.57
2018-01-22T00:57:02.982Z,20.27
2018-01-22T00:59:30.537Z,21.30
2018-01-22T01:01:58.086Z,21.70
2018-01-22T01:04:26.399Z,27.57
2018-01-22T01:06:53.879Z,23.33
2018-01-22T01:09:21.355Z,20.03
2018-01-22T01:11:48.851Z,22.87
2018-01-22T01:14:16.336Z,21.80
2018-01-22T01:16:44.633Z,22.80
2018-01-22T01:19:12.110Z,20.27
2018-01-22T01:21:39.598Z,20.40
2018-01-22T01:24:07.102Z,28.57
2018-01-22T01:26:34.582Z,24.67
2018-01-22T01:29:02.091Z,22.60
2018-01-22T01:31:29.576Z,26.83
2018-01-22T01:33:57.047Z,21.83
2018-01-22T01:36:24.542Z,22.67
2018-01-22T01:38:52.066Z,25.83
2018-01-22T01:41:19.535Z,22.73
2018-01-22T01:43:47.809Z,28.10
2018-01-22T01:46:16.084Z,31.60
2018-01-22T01:48:55.500Z,24.83
2018-01-22T01:51:23.000Z,22.97
2018-01-22T01:53:51.254Z,28.17
2018-01-22T01:56:19.498Z,29.97
2018-01-22T01:58:47.046Z,30.90
2018-01-22T02:01:14.641Z,30.23
2018-01-22T02:03:42.894Z,33.53
2018-01-22T02:06:10.422Z,36.03
2018-01-22T02:08:37.902Z,31.33
2018-01-22T02:11:05.406Z,27.87
2018-01-22T02:13:33.675Z,33.20
2018-01-22T02:16:01.263Z,34.57
2018-01-22T02:18:29.547Z,31.57
2018-01-22T02:20:57.008Z,31.90
2018-01-22T02:23:24.504Z,33.90
2018-01-22T02:25:51.971Z,37.70
2018-01-22T02:28:20.258Z,41.23
2018-01-22T02:30:47.844Z,41.30
2018-01-22T02:33:15.392Z,28.80
2018-01-22T02:35:42.850Z,30.57
2018-01-22T02:38:10.353Z,34.27
2018-01-22T02:40:37.854Z,33.93
2018-01-22T02:43:06.126Z,42.73
2018-01-22T02:45:34.380Z,33.63
2018-01-22T02:48:01.836Z,45.67
2018-01-22T02:50:30.116Z,37.13
2018-01-22T02:52:57.602Z,30.53
2018-01-22T02:55:25.123Z,45.10
2018-01-22T02:57:52.618Z,32.73
2018-01-22T03:00:20.092Z,28.77
2018-01-22T03:02:47.557Z,46.63
2018-01-22T03:05:15.078Z,40.53
2018-01-22T03:07:43.348Z,37.77
2018-01-22T03:10:10.853Z,43.67
2018-01-22T03:12:38.354Z,43.27
2018-01-22T03:15:05.898Z,46.47
2018-01-22T03:17:33.381Z,37.40
2018-01-22T03:20:01.632Z,40.33
2018-01-22T03:22:29.118Z,51.00
2018-01-22T03:24:57.371Z,38.47
2018-01-22T03:27:25.710Z,33.80
2018-01-22T03:29:53.173Z,42.67
2018-01-22T03:32:20.698Z,34.30
2018-01-22T03:34:48.250Z,39.83
2018-01-22T03:37:16.517Z,50.77
2018-01-22T03:39:44.072Z,32.93
2018-01-22T03:42:11.631Z,50.90
2018-01-22T03:44:39.191Z,31.20
2018-01-22T03:47:06.656Z,44.50
2018-01-22T03:49:34.190Z,51.77
2018-01-22T03:52:01.667Z,46.83
2018-01-22T03:54:29.182Z,38.50
2018-01-22T03:56:56.716Z,30.40
2018-01-22T03:59:24.192Z,41.43
2018-01-22T04:01:51.695Z,49.53
2018-01-22T04:04:19.217Z,43.93
2018-01-22T04:06:46.733Z,36.83
2018-01-22T04:09:14.270Z,48.20
2018-01-22T04:11:42.506Z,43.33
2018-01-22T04:14:09.992Z,43.07
2018-01-22T04:16:37.503Z,44.77
2018-01-22T04:19:05.071Z,40.87
2018-01-22T04:21:32.531Z,49.17
2018-01-22T04:24:00.006Z,40.40
2018-01-22T04:26:27.490Z,36.90
2018-01-22T04:28:55.745Z,42.70
2018-01-22T04:31:23.213Z,45.73
2018-01-22T04:33:50.685Z,34.63
2018-01-22T04:36:18.983Z,51.67
2018-01-22T04:38:46.653Z,42.27
2018-01-22T04:41:14.228Z,51.07
2018-01-22T04:43:41.741Z,51.37
2018-01-22T04:46:09.971Z,52.43
2018-01-22T04:48:37.502Z,43.47
2018-01-22T04:51:04.994Z,49.50
2018-01-22T04:53:32.505Z,45.60
2018-01-22T04:55:59.977Z,51.23
2018-01-22T04:58:27.505Z,78.37
2018-01-22T05:00:55.770Z,53.67
2018-01-22T05:03:24.069Z,41.27
2018-01-22T05:05:52.342Z,59.90
2018-01-22T05:08:19.906Z,47.60
2018-01-22T05:10:48.123Z,43.77
2018-01-22T05:13:15.654Z,49.37
2018-01-22T05:15:43.176Z,41.33
2018-01-22T05:18:10.705Z,59.13
2018-01-22T05:20:38.505Z,47.47
2018-01-22T05:23:06.776Z,48.00
2018-01-22T05:25:35.095Z,59.90
2018-01-22T05:28:02.653Z,40.73
2018-01-22T05:30:30.191Z,65.87
2018-01-22T05:32:57.745Z,41.90
2018-01-22T05:35:25.267Z,39.00
2018-01-22T05:37:52.825Z,45.40
2018-01-22T05:40:20.426Z,58.60
2018-01-22T05:42:47.973Z,51.63
2018-01-22T05:45:15.558Z,57.67
2018-01-22T05:47:43.082Z,48.43
2018-01-22T05:50:11.430Z,41.00
2018-01-22T05:52:38.913Z,34.00
2018-01-22T05:55:06.487Z,40.37
2018-01-22T05:57:33.983Z,36.37
2018-01-22T06:00:01.450Z,37.03
2018-01-22T06:02:28.933Z,34.13
2018-01-22T06:04:56.408Z,35.03
2018-01-22T06:07:24.638Z,34.37
2018-01-22T06:09:52.125Z,42.23
2018-01-22T06:12:20.355Z,35.37
2018-01-22T06:14:47.833Z,23.43
2018-01-22T06:17:15.307Z,20.83
2018-01-22T06:19:42.769Z,27.80
2018-01-22T06:22:10.243Z,27.07
2018-01-22T06:24:38.474Z,33.40
2018-01-22T06:27:05.945Z,28.17
2018-01-22T06:29:33.422Z,32.20
2018-01-22T06:32:01.643Z,28.73
2018-01-22T06:34:29.099Z,28.07
2018-01-22T06:36:56.563Z,27.60
2018-01-22T06:39:24.021Z,27.17
2018-01-22T06:41:52.235Z,30.13
2018-01-22T06:44:20.510Z,24.43
2018-01-22T06:46:48.762Z,19.73
2018-01-22T06:49:16.265Z,22.27
2018-01-22T06:51:43.730Z,19.00
2018-01-22T06:54:11.182Z,20.17
2018-01-22T06:56:38.630Z,23.40
2018-01-22T06:59:06.115Z,22.17
2018-01-22T07:01:33.573Z,25.23
2018-01-22T07:04:01.027Z,18.80
2018-01-22T07:06:28.498Z,16.63
2018-01-22T07:08:55.950Z,14.70
2018-01-22T07:11:23.418Z,19.70
2018-01-22T07:13:50.922Z,19.33
2018-01-22T07:16:18.398Z,30.03
2018-01-22T07:18:45.861Z,27.53
2018-01-22T07:21:13.326Z,21.60
2018-01-22T07:23:40.814Z,20.30
2018-01-22T07:26:08.276Z,20.03
2018-01-22T07:28:37.776Z,15.13
2018-01-22T07:31:05.178Z,18.40
2018-01-22T07:33:32.638Z,14.20
2018-01-22T07:36:00.144Z,13.20
2018-01-22T07:38:27.589Z,24.00
2018-01-22T07:40:55.049Z,20.60
2018-01-22T07:43:22.510Z,18.30
2018-01-22T07:45:49.966Z,17.93
2018-01-22T07:48:17.426Z,23.47
2018-01-22T07:50:44.887Z,16.37
2018-01-22T07:53:12.333Z,12.03
2018-01-22T07:55:39.793Z,19.53
2018-01-22T07:58:07.262Z,11.60
2018-01-22T08:00:34.750Z,12.70
2018-01-22T08:03:02.960Z,9.83
2018-01-22T08:05:30.422Z,12.43
2018-01-22T08:07:57.870Z,20.40
2018-01-22T08:10:25.336Z,12.63
2018-01-22T08:12:52.795Z,13.30
2018-01-22T08:15:20.266Z,23.93
2018-01-22T08:17:47.726Z,21.00
2018-01-22T08:20:15.221Z,13.50
2018-01-22T08:22:42.646Z,18.27
2018-01-22T08:25:10.109Z,10.60
2018-01-22T08:27:37.570Z,21.07
2018-01-22T08:30:05.031Z,19.93
2018-01-22T08:32:32.474Z,17.23
2018-01-22T08:34:59.937Z,18.87
2018-01-22T08:37:27.390Z,18.83
2018-01-22T08:39:54.851Z,13.23
2018-01-22T08:42:22.316Z,21.03
2018-01-22T08:44:49.780Z,23.93
2018-01-22T08:47:17.991Z,15.40
2018-01-22T08:49:45.481Z,15.50
2018-01-22T08:52:12.931Z,18.40
2018-01-22T08:54:40.389Z,12.33
2018-01-22T08:57:07.855Z,19.50
2018-01-22T08:59:35.314Z,17.00
2018-01-22T09:02:02.773Z,14.53
2018-01-22T09:04:30.252Z,15.07
2018-01-22T09:06:58.476Z,22.33
2018-01-22T09:09:25.930Z,24.80
2018-01-22T09:11:53.402Z,21.33
2018-01-22T09:14:20.892Z,23.10
2018-01-22T09:16:48.339Z,21.13
2018-01-22T09:19:15.830Z,22.60
2018-01-22T09:21:43.287Z,20.17
2018-01-22T09:24:10.767Z,16.80
2018-01-22T09:26:38.242Z,14.03
2018-01-22T09:29:06.478Z,18.53
2018-01-22T09:31:33.938Z,15.40
2018-01-22T09:34:01.430Z,21.40
2018-01-22T09:36:28.902Z,16.30
2018-01-22T09:38:56.348Z,15.40
2018-01-22T09:41:23.818Z,14.33
2018-01-22T09:43:51.271Z,9.47
2018-01-22T09:46:18.728Z,24.27
2018-01-22T09:48:46.202Z,24.10
2018-01-22T09:51:14.423Z,13.20
2018-01-22T09:53:41.882Z,18.37
2018-01-22T09:56:10.207Z,16.70
2018-01-22T09:58:37.658Z,18.80
2018-01-22T10:01:05.106Z,15.10
2018-01-22T10:03:32.592Z,18.07
2018-01-22T10:06:00.834Z,15.60
2018-01-22T10:08:28.294Z,17.43
2018-01-22T10:10:55.790Z,21.03
2018-01-22T10:13:24.002Z,18.70
2018-01-22T10:15:51.458Z,18.27
2018-01-22T10:18:18.930Z,14.07
2018-01-22T10:20:46.388Z,16.03
2018-01-22T10:23:13.841Z,17.70
2018-01-22T10:25:41.312Z,19.37
2018-01-22T10:28:08.774Z,19.90
2018-01-22T10:30:36.232Z,20.83
2018-01-22T10:33:03.687Z,19.17
2018-01-22T10:35:31.143Z,16.97
2018-01-22T10:37:58.602Z,18.87
2018-01-22T10:40:26.071Z,25.20
2018-01-22T10:42:54.298Z,18.80
2018-01-22T10:45:21.750Z,16.20
2018-01-22T10:47:49.230Z,20.27
2018-01-22T10:50:16.686Z,17.93
2018-01-22T10:52:44.138Z,14.03
2018-01-22T10:55:11.607Z,10.10
2018-01-22T10:57:39.067Z,16.90
2018-01-22T11:00:06.518Z,16.53
2018-01-22T11:02:34.006Z,22.00
2018-01-22T11:05:02.247Z,11.50
2018-01-22T11:07:29.669Z,21.83
2018-01-22T11:09:57.134Z,19.17
2018-01-22T11:12:24.587Z,16.10
2018-01-22T11:14:52.047Z,13.43
2018-01-22T11:17:19.522Z,15.73
2018-01-22T11:19:46.969Z,18.67
2018-01-22T11:22:14.427Z,13.13
2018-01-22T11:24:41.899Z,10.83
2018-01-22T11:27:09.367Z,20.20
2018-01-22T11:29:36.818Z,10.80
2018-01-22T11:32:04.288Z,17.83
2018-01-22T11:34:31.743Z,28.47
2018-01-22T11:36:59.205Z,23.10
2018-01-22T11:39:27.463Z,22.50
2018-01-22T11:41:54.926Z,24.33
2018-01-22T11:44:22.378Z,20.57
2018-01-22T11:46:49.848Z,19.53
2018-01-22T11:49:17.303Z,18.23
2018-01-22T11:51:44.761Z,13.80
2018-01-22T11:54:12.259Z,17.93
2018-01-22T11:56:39.710Z,25.90
2018-01-22T11:59:07.178Z,24.13
2018-01-22T12:01:34.662Z,17.17
2018-01-22T12:04:02.130Z,17.63
2018-01-22T12:06:29.574Z,27.03
2018-01-22T12:08:57.055Z,18.60
2018-01-22T12:11:24.502Z,19.20
2018-01-22T12:13:51.963Z,23.83
2018-01-22T12:16:19.430Z,16.10
2018-01-22T12:18:47.651Z,20.47
2018-01-22T12:21:15.146Z,19.97
2018-01-22T12:23:42.636Z,22.57
2018-01-22T12:26:10.884Z,23.80
2018-01-22T12:28:38.452Z,18.03
2018-01-22T12:31:05.913Z,29.93
2018-01-22T12:33:34.136Z,22.17
2018-01-22T12:36:01.582Z,14.90
2018-01-22T12:38:29.064Z,24.23
2018-01-22T12:40:56.514Z,14.83
2018-01-22T12:43:23.982Z,16.17
2018-01-22T12:45:51.469Z,15.87
2018-01-22T12:48:19.692Z,27.33
2018-01-22T12:50:47.150Z,21.70
2018-01-22T12:53:14.606Z,22.07
2018-01-22T12:55:42.062Z,22.97
2018-01-22T12:58:09.524Z,22.23
2018-01-22T13:00:37.006Z,26.60
2018-01-22T13:03:04.470Z,28.73
2018-01-22T13:05:31.933Z,19.67
2018-01-22T13:07:59.390Z,21.37
2018-01-22T13:10:26.847Z,20.37
2018-01-22T13:12:54.338Z,20.13
2018-01-22T13:15:22.573Z,19.87
2018-01-22T13:17:50.025Z,24.13
2018-01-22T13:20:17.485Z,22.97
2018-01-22T13:22:44.951Z,25.27
2018-01-22T13:25:12.411Z,22.47
2018-01-22T13:27:39.866Z,19.60
2018-01-22T13:30:08.184Z,29.40
2018-01-22T13:32:35.673Z,24.20
2018-01-22T13:35:03.125Z,23.97
2018-01-22T13:37:30.598Z,27.67
2018-01-22T13:40:03.714Z,18.23
2018-01-22T13:42:31.963Z,27.60
2018-01-22T13:44:59.417Z,23.63
2018-01-22T13:47:26.873Z,30.27
2018-01-22T13:49:54.347Z,23.80
2018-01-22T13:52:21.790Z,28.10
2018-01-22T13:54:49.247Z,16.87
2018-01-22T13:57:16.718Z,20.50
2018-01-22T13:59:44.175Z,22.53
2018-01-22T14:02:11.626Z,27.10
2018-01-22T14:04:39.619Z,24.00
2018-01-22T14:07:07.843Z,28.40
2018-01-22T14:09:35.298Z,24.30
2018-01-22T14:12:02.774Z,34.23
2018-01-22T14:14:30.232Z,31.10
2018-01-22T14:16:57.686Z,32.47
2018-01-22T14:19:25.154Z,31.33
2018-01-22T14:21:52.607Z,25.47
2018-01-22T14:24:20.058Z,22.43
2018-01-22T14:26:47.529Z,19.03
2018-01-22T14:29:15.751Z,20.17
2018-01-22T14:31:43.201Z,20.63
2018-01-22T14:34:10.665Z,26.87
2018-01-22T14:36:38.146Z,26.37
2018-01-22T14:39:05.661Z,18.37
2018-01-22T14:41:33.112Z,35.77
2018-01-22T14:44:00.567Z,30.30
2018-01-22T14:46:28.027Z,19.50
2018-01-22T14:48:55.503Z,23.60
2018-01-22T14:51:22.958Z,20.87
2018-01-22T14:53:50.414Z,30.83
2018-01-22T14:56:17.888Z,26.27
2018-01-22T14:58:45.335Z,42.67
2018-01-22T15:01:12.791Z,35.87
2018-01-22T15:03:40.283Z,40.60
2018-01-22T15:06:07.742Z,29.83
2018-01-22T15:08:35.204Z,29.60
2018-01-22T15:11:02.664Z,26.10
2018-01-22T15:13:30.119Z,30.63
2018-01-22T15:15:57.574Z,36.23
2018-01-22T15:18:25.044Z,27.23
2018-01-22T15:20:52.513Z,44.90
2018-01-22T15:23:19.967Z,31.33
2018-01-22T15:25:48.219Z,38.30
2018-01-22T15:28:15.671Z,28.63
2018-01-22T15:30:43.135Z,24.03
2018-01-22T15:33:10.587Z,34.93
2018-01-22T15:35:38.041Z,25.80
2018-01-22T15:38:05.515Z,26.47
2018-01-22T15:40:33.730Z,27.90
2018-01-22T15:43:01.186Z,38.60
2018-01-22T15:45:28.654Z,18.50
2018-01-22T15:47:56.102Z,30.33
2018-01-22T15:50:23.554Z,29.10
2018-01-22T15:52:51.039Z,22.60
2018-01-22T15:55:18.482Z,30.97
2018-01-22T15:57:45.961Z,27.97
2018-01-22T16:00:13.425Z,31.53
2018-01-22T16:02:41.798Z,30.33
2018-01-22T16:05:09.261Z,21.30
2018-01-22T16:07:36.747Z,28.07
2018-01-22T16:10:04.215Z,34.13
2018-01-22T16:12:31.666Z,31.40
2018-01-22T16:14:59.144Z,25.03
2018-01-22T16:17:26.601Z,28.33
2018-01-22T16:19:54.064Z,26.67
2018-01-22T16:22:21.529Z,38.50
2018-01-22T16:24:49.010Z,24.37
2018-01-22T16:27:16.475Z,30.70
2018-01-22T16:29:43.946Z,34.00
2018-01-22T16:32:12.167Z,30.53
2018-01-22T16:34:40.455Z,23.30
2018-01-22T16:37:07.915Z,25.57
2018-01-22T16:39:35.367Z,19.63
2018-01-22T16:42:02.820Z,33.00
2018-01-22T16:44:30.303Z,32.90
2018-01-22T16:47:03.435Z,23.70
2018-01-22T16:49:30.934Z,27.57
2018-01-22T16:51:58.386Z,22.53
2018-01-22T16:54:25.867Z,24.03
2018-01-22T16:56:53.336Z,28.57
2018-01-22T16:59:21.572Z,22.37
2018-01-22T17:01:49.023Z,27.30
2018-01-22T17:04:16.491Z,28.53
2018-01-22T17:06:43.953Z,31.33
2018-01-22T17:09:11.410Z,31.63
2018-01-22T17:11:38.916Z,24.43
2018-01-22T17:14:06.342Z,30.67
2018-01-22T17:16:33.794Z,28.63
2018-01-22T17:19:01.262Z,30.63
2018-01-22T17:21:30.487Z,15.43
2018-01-22T17:23:57.931Z,21.27
2018-01-22T17:26:29.920Z,36.33
2018-01-22T17:29:01.974Z,23.23
2018-01-22T17:31:29.548Z,27.60
2018-01-22T17:33:57.274Z,24.17
2018-01-22T17:36:25.631Z,34.67
2018-01-22T17:39:03.136Z,25.67
2018-01-22T17:41:32.602Z,25.17
2018-01-22T17:44:00.151Z,32.30
2018-01-22T17:46:27.751Z,34.30
2018-01-22T17:48:55.210Z,33.53
2018-01-22T17:51:22.662Z,36.47
2018-01-22T17:53:52.341Z,28.60
2018-01-22T17:56:20.011Z,27.90
2018-01-22T17:58:47.461Z,23.63
2018-01-22T18:01:14.988Z,24.53
2018-01-22T18:03:42.515Z,29.10
2018-01-22T18:06:10.745Z,36.20
2018-01-22T18:08:38.222Z,23.67
2018-01-22T18:11:05.780Z,26.13
2018-01-22T18:13:33.241Z,17.10
2018-01-22T18:16:00.718Z,27.17
2018-01-22T18:18:28.203Z,21.80
2018-01-22T18:20:55.658Z,24.57
2018-01-22T18:23:23.160Z,30.90
2018-01-22T18:25:50.713Z,34.87
2018-01-22T18:28:18.307Z,19.83
2018-01-22T18:30:46.526Z,21.57
2018-01-22T18:33:14.114Z,26.63
2018-01-22T18:35:41.576Z,21.33
2018-01-22T18:38:09.038Z,27.67
2018-01-22T18:40:36.519Z,22.13
2018-01-22T18:43:04.775Z,22.43
2018-01-22T18:45:32.242Z,27.60
2018-01-22T18:47:59.745Z,20.20
2018-01-22T18:50:30.527Z,18.63
2018-01-22T18:52:59.300Z,22.52
2018-01-22T18:55:28.803Z,28.63
2018-01-22T18:57:56.848Z,26.27
2018-01-22T19:00:24.964Z,28.57
2018-01-22T19:02:53.637Z,24.43
2018-01-22T19:05:26.779Z,20.97
2018-01-22T19:07:56.810Z,19.97
2018-01-22T19:10:24.298Z,23.40
2018-01-22T19:12:51.771Z,25.00
2018-01-22T19:15:19.234Z,20.87
2018-01-22T19:17:47.454Z,15.67
2018-01-22T19:20:14.946Z,19.37
2018-01-22T19:22:42.409Z,28.67
2018-01-22T19:25:09.906Z,32.03
2018-01-22T19:27:37.410Z,35.23
2018-01-22T19:30:04.882Z,19.10
2018-01-22T19:32:32.368Z,24.40
2018-01-22T19:35:00.644Z,18.93
2018-01-22T19:37:28.894Z,23.87
2018-01-22T19:39:56.368Z,22.20
2018-01-22T19:42:24.602Z,27.53
2018-01-22T19:44:52.082Z,17.10
2018-01-22T19:47:19.615Z,29.33
2018-01-22T19:49:47.126Z,19.53
2018-01-22T19:52:14.607Z,25.87
2018-01-22T19:54:42.116Z,18.80
2018-01-22T19:57:09.583Z,15.57
2018-01-22T19:59:37.797Z,24.00
2018-01-22T20:02:05.323Z,18.53
2018-01-22T20:04:33.550Z,21.93
2018-01-22T20:07:01.015Z,17.10
2018-01-22T20:09:28.461Z,19.63
2018-01-22T20:11:55.938Z,31.47
2018-01-22T20:14:23.418Z,20.80
2018-01-22T20:16:51.686Z,18.13
2018-01-22T20:19:19.977Z,15.20
2018-01-22T20:21:47.457Z,12.97
2018-01-22T20:24:14.986Z,22.20
2018-01-22T20:26:43.258Z,23.70
2018-01-22T20:29:11.536Z,19.13
2018-01-22T20:31:39.094Z,21.70
2018-01-22T20:34:07.337Z,18.77
2018-01-22T20:36:34.839Z,30.30
2018-01-22T20:39:03.912Z,21.07
2018-01-22T20:41:32.300Z,17.80
2018-01-22T20:44:01.425Z,22.70
2018-01-22T20:46:30.878Z,18.70
2018-01-22T20:49:00.576Z,27.33
2018-01-22T20:51:28.063Z,26.33
2018-01-22T20:53:55.822Z,28.90
2018-01-22T20:56:23.427Z,23.33
2018-01-22T20:58:50.920Z,21.47
2018-01-22T21:01:18.607Z,22.57
2018-01-22T21:03:46.956Z,26.20
2018-01-22T21:06:14.539Z,21.03
2018-01-22T21:08:42.419Z,16.13
2018-01-22T21:11:09.975Z,25.67
2018-01-22T21:13:37.525Z,18.77
2018-01-22T21:16:05.099Z,21.23
2018-01-22T21:18:32.616Z,22.73
2018-01-22T21:21:00.207Z,21.70
2018-01-22T21:23:27.754Z,14.33
2018-01-22T21:25:55.679Z,27.07
2018-01-22T21:28:23.259Z,18.77
2018-01-22T21:30:50.707Z,23.47
2018-01-22T21:33:18.174Z,23.47
2018-01-22T21:35:45.675Z,23.50
2018-01-22T21:38:13.271Z,19.27
2018-01-22T21:40:40.918Z,14.50
2018-01-22T21:43:08.462Z,18.03
2018-01-22T21:45:35.954Z,18.90
2018-01-22T21:48:04.528Z,15.03
2018-01-22T21:50:32.020Z,19.67
2018-01-22T21:52:59.579Z,18.67
2018-01-22T21:55:27.103Z,25.27
2018-01-22T21:57:54.824Z,22.07
2018-01-22T22:00:23.078Z,16.73
2018-01-22T22:02:50.604Z,10.67
2018-01-22T22:05:18.094Z,14.63
2018-01-22T22:07:45.575Z,16.07
2018-01-22T22:10:13.054Z,11.87
2018-01-22T22:12:40.650Z,20.83
2018-01-22T22:15:08.174Z,17.77
2018-01-22T22:17:35.630Z,20.47
2018-01-22T22:20:03.249Z,25.93
2018-01-22T22:22:30.717Z,20.87
2018-01-22T22:24:58.998Z,11.30
2018-01-22T22:27:27.235Z,19.00
2018-01-22T22:29:54.715Z,17.03
2018-01-22T22:32:22.968Z,14.53
2018-01-22T22:34:50.511Z,19.43
2018-01-22T22:37:18.064Z,20.53
2018-01-22T22:39:45.541Z,18.33
2018-01-22T22:42:13.045Z,14.90
2018-01-22T22:44:41.366Z,11.23
2018-01-22T22:47:08.835Z,17.27
2018-01-22T22:49:36.357Z,17.70
2018-01-22T22:52:03.826Z,14.90
2018-01-22T22:54:31.339Z,22.33
2018-01-22T22:56:59.653Z,13.57
2018-01-22T22:59:27.188Z,12.50
2018-01-22T23:01:54.677Z,13.87
2018-01-22T23:04:22.154Z,18.87
2018-01-22T23:06:50.414Z,17.37
2018-01-22T23:09:17.882Z,13.83
2018-01-22T23:11:45.350Z,24.80
2018-01-22T23:14:12.883Z,18.07
2018-01-22T23:16:40.334Z,12.17
2018-01-22T23:19:08.612Z,12.20
2018-01-22T23:21:36.090Z,14.60
2018-01-22T23:24:03.568Z,13.53
2018-01-22T23:26:31.852Z,20.70
2018-01-22T23:29:00.138Z,11.63
2018-01-22T23:31:27.634Z,10.20
2018-01-22T23:33:55.124Z,15.27
2018-01-22T23:36:22.631Z,24.40
2018-01-22T23:38:50.111Z,19.07
2018-01-22T23:41:17.587Z,13.80
2018-01-22T23:43:45.123Z,9.77
2018-01-22T23:46:12.598Z,12.97
2018-01-22T23:48:40.122Z,12.87
2018-01-22T23:51:07.586Z,11.00
2018-01-22T23:53:35.074Z,16.33
2018-01-22T23:56:02.545Z,11.73
2018-01-22T23:58:30.072Z,13.43
